createdAt,value
2018-07-27T00:00:43.214Z,4.00
2018-07-27T00:01:43.195Z,4.00
2018-07-27T00:02:43.193Z,4.00
2018-07-27T00:03:43.176Z,4.00
2018-07-27T00:04:43.165Z,4.00
2018-07-27T00:05:43.159Z,4.00
2018-07-27T00:06:43.147Z,4.00
2018-07-27T00:07:43.143Z,4.00
2018-07-27T00:08:43.136Z,4.00
2018-07-27T00:09:43.118Z,4.00
2018-07-27T00:10:43.108Z,4.00
2018-07-27T00:11:43.101Z,4.00
2018-07-27T00:12:43.089Z,4.00
2018-07-27T00:13:43.077Z,4.00
2018-07-27T00:14:43.071Z,4.00
2018-07-27T00:15:43.059Z,4.00
2018-07-27T00:16:43.049Z,4.00
2018-07-27T00:17:43.044Z,4.00
2018-07-27T00:18:43.035Z,4.00
2018-07-27T00:19:43.019Z,4.00
2018-07-27T00:20:43.013Z,4.00
2018-07-27T00:21:43.012Z,4.00
2018-07-27T00:22:42.995Z,4.00
2018-07-27T00:23:42.990Z,4.00
2018-07-27T00:24:42.970Z,4.00
2018-07-27T00:25:42.966Z,4.00
2018-07-27T00:26:42.960Z,4.00
2018-07-27T00:27:42.940Z,4.00
2018-07-27T00:28:42.933Z,4.00
2018-07-27T00:29:42.923Z,4.00
2018-07-27T00:30:42.913Z,4.00
2018-07-27T00:31:42.903Z,4.00
2018-07-27T00:32:42.893Z,4.00
2018-07-27T00:33:42.883Z,4.00
2018-07-27T00:34:42.872Z,4.00
2018-07-27T00:35:42.863Z,4.00
2018-07-27T00:36:42.855Z,4.00
2018-07-27T00:37:42.843Z,4.00
2018-07-27T00:38:42.834Z,4.00
2018-07-27T00:39:42.829Z,4.00
2018-07-27T00:40:42.824Z,4.00
2018-07-27T00:41:42.804Z,4.00
2018-07-27T00:42:42.793Z,4.00
2018-07-27T00:43:42.786Z,4.00
2018-07-27T00:44:42.774Z,4.00
2018-07-27T00:45:42.765Z,4.00
2018-07-27T00:46:42.762Z,4.00
2018-07-27T00:47:42.752Z,4.00
2018-07-27T00:48:42.736Z,4.00
2018-07-27T00:49:42.727Z,4.00
2018-07-27T00:50:42.720Z,4.00
2018-07-27T00:51:42.707Z,4.00
2018-07-27T00:52:42.696Z,4.00
2018-07-27T00:53:42.793Z,4.00
2018-07-27T00:54:42.676Z,4.00
2018-07-27T00:55:42.665Z,4.00
2018-07-27T00:56:42.657Z,4.00
2018-07-27T00:57:42.647Z,4.00
2018-07-27T00:58:42.645Z,4.00
2018-07-27T00:59:42.627Z,4.00
2018-07-27T01:00:42.619Z,4.00
2018-07-27T01:01:42.605Z,4.00
2018-07-27T01:02:42.595Z,4.00
2018-07-27T01:03:42.585Z,4.00
2018-07-27T01:04:42.576Z,4.00
2018-07-27T01:05:42.566Z,4.00
2018-07-27T01:06:42.556Z,4.00
2018-07-27T01:07:42.547Z,4.00
2018-07-27T01:08:42.542Z,4.00
2018-07-27T01:09:42.529Z,4.00
2018-07-27T01:10:42.514Z,4.00
2018-07-27T01:11:42.506Z,4.00
2018-07-27T01:12:42.496Z,4.00
2018-07-27T01:13:42.487Z,4.00
2018-07-27T01:14:42.492Z,4.00
2018-07-27T01:15:42.474Z,4.00
2018-07-27T01:16:42.456Z,4.00
2018-07-27T01:17:42.445Z,4.00
2018-07-27T01:18:42.436Z,4.00
2018-07-27T01:19:42.424Z,4.00
2018-07-27T01:20:42.416Z,4.00
2018-07-27T01:21:42.404Z,4.00
2018-07-27T01:22:42.397Z,4.00
2018-07-27T01:23:42.386Z,4.00
2018-07-27T01:24:42.376Z,4.00
2018-07-27T01:25:42.365Z,4.00
2018-07-27T01:26:42.355Z,4.00
2018-07-27T01:27:42.355Z,4.00
2018-07-27T01:28:42.334Z,4.00
2018-07-27T01:29:42.324Z,4.00
2018-07-27T01:30:42.315Z,4.00
2018-07-27T01:31:42.304Z,4.00
2018-07-27T01:32:42.294Z,4.00
2018-07-27T01:33:42.284Z,4.00
2018-07-27T01:34:42.287Z,4.00
2018-07-27T01:35:42.287Z,4.00
2018-07-27T01:36:42.254Z,4.00
2018-07-27T01:37:42.243Z,4.00
2018-07-27T01:38:42.233Z,4.00
2018-07-27T01:39:42.224Z,4.00
2018-07-27T01:40:42.212Z,4.00
2018-07-27T01:41:42.202Z,4.00
2018-07-27T01:42:42.191Z,4.00
2018-07-27T01:43:42.182Z,4.00
2018-07-27T01:44:42.173Z,4.00
2018-07-27T01:45:42.166Z,4.00
2018-07-27T01:46:42.153Z,4.00
2018-07-27T01:47:42.141Z,4.00
2018-07-27T01:48:42.133Z,4.00
2018-07-27T01:49:42.122Z,4.00
2018-07-27T01:50:42.111Z,4.00
2018-07-27T01:51:42.102Z,4.00
2018-07-27T01:52:42.089Z,4.00
2018-07-27T01:53:42.081Z,4.00
2018-07-27T01:54:42.070Z,4.00
2018-07-27T01:55:42.063Z,4.00
2018-07-27T01:56:42.051Z,4.00
2018-07-27T01:57:42.049Z,4.00
2018-07-27T01:58:42.032Z,4.00
2018-07-27T01:59:42.072Z,4.00
2018-07-27T02:00:42.013Z,4.00
2018-07-27T02:01:42.003Z,4.00
2018-07-27T02:02:41.987Z,4.00
2018-07-27T02:03:41.978Z,4.00
2018-07-27T02:04:41.968Z,4.00
2018-07-27T02:05:41.958Z,4.00
2018-07-27T02:06:41.952Z,4.00
2018-07-27T02:07:41.940Z,4.00
2018-07-27T02:08:41.930Z,4.00
2018-07-27T02:09:41.922Z,4.00
2018-07-27T02:10:41.909Z,4.00
2018-07-27T02:11:41.898Z,4.00
2018-07-27T02:12:41.888Z,4.00
2018-07-27T02:13:41.875Z,4.00
2018-07-27T02:14:41.871Z,4.00
2018-07-27T02:15:41.922Z,4.00
2018-07-27T02:16:41.846Z,4.00
2018-07-27T02:17:41.834Z,4.00
2018-07-27T02:18:41.826Z,4.00
2018-07-27T02:19:41.816Z,4.00
2018-07-27T02:20:41.805Z,4.00
2018-07-27T02:21:41.795Z,4.00
2018-07-27T02:22:41.782Z,4.00
2018-07-27T02:23:41.776Z,4.00
2018-07-27T02:24:41.800Z,4.00
2018-07-27T02:25:41.754Z,4.00
2018-07-27T02:26:41.743Z,4.00
2018-07-27T02:27:41.731Z,4.00
2018-07-27T02:28:41.722Z,4.00
2018-07-27T02:29:41.711Z,4.00
2018-07-27T02:30:41.701Z,4.00
2018-07-27T02:31:41.692Z,4.00
2018-07-27T02:32:41.681Z,4.00
2018-07-27T02:33:41.724Z,4.00
2018-07-27T02:34:41.660Z,4.00
2018-07-27T02:35:41.657Z,4.00
2018-07-27T02:36:41.646Z,4.00
2018-07-27T02:37:41.636Z,4.00
2018-07-27T02:38:41.619Z,4.00
2018-07-27T02:39:41.606Z,4.00
2018-07-27T02:40:41.597Z,4.00
2018-07-27T02:41:41.589Z,4.00
2018-07-27T02:42:41.574Z,4.00
2018-07-27T02:43:41.564Z,4.00
2018-07-27T02:44:41.556Z,4.00
2018-07-27T02:45:41.543Z,4.00
2018-07-27T02:46:41.532Z,4.00
2018-07-27T02:47:41.521Z,4.00
2018-07-27T02:48:41.512Z,4.00
2018-07-27T02:49:41.500Z,4.00
2018-07-27T02:50:41.492Z,4.00
2018-07-27T02:51:41.479Z,4.00
2018-07-27T02:52:41.621Z,8.00
2018-07-27T02:53:41.459Z,4.00
2018-07-27T02:54:41.449Z,4.00
2018-07-27T02:55:41.442Z,4.00
2018-07-27T02:56:41.426Z,4.00
2018-07-27T02:57:41.417Z,4.00
2018-07-27T02:58:41.417Z,4.00
2018-07-27T02:59:41.412Z,4.00
2018-07-27T03:00:41.385Z,4.00
2018-07-27T03:01:41.377Z,8.00
2018-07-27T03:02:41.365Z,4.00
2018-07-27T03:03:41.359Z,4.00
2018-07-27T03:04:41.341Z,8.00
2018-07-27T03:05:41.330Z,8.00
2018-07-27T03:06:41.322Z,8.00
2018-07-27T03:07:41.310Z,8.00
2018-07-27T03:08:41.299Z,8.00
2018-07-27T03:09:41.305Z,12.00
2018-07-27T03:10:41.277Z,12.00
2018-07-27T03:11:41.266Z,8.00
2018-07-27T03:12:41.256Z,12.00
2018-07-27T03:13:41.243Z,12.00
2018-07-27T03:14:41.233Z,12.00
2018-07-27T03:15:41.225Z,16.00
2018-07-27T03:16:41.218Z,20.00
2018-07-27T03:17:41.200Z,20.00
2018-07-27T03:18:41.194Z,24.00
2018-07-27T03:19:41.182Z,24.00
2018-07-27T03:20:41.168Z,28.00
2018-07-27T03:21:41.156Z,28.00
2018-07-27T03:22:41.147Z,28.00
2018-07-27T03:23:41.136Z,32.00
2018-07-27T03:24:41.126Z,36.00
2018-07-27T03:25:41.115Z,44.00
2018-07-27T03:26:41.105Z,48.00
2018-07-27T03:27:41.093Z,56.00
2018-07-27T03:28:41.082Z,56.00
2018-07-27T03:29:41.070Z,68.00
2018-07-27T03:30:41.061Z,72.00
2018-07-27T03:31:41.050Z,80.00
2018-07-27T03:32:41.038Z,92.00
2018-07-27T03:33:41.029Z,100.00
2018-07-27T03:34:41.018Z,108.00
2018-07-27T03:35:41.006Z,120.00
2018-07-27T03:36:40.995Z,132.00
2018-07-27T03:37:40.985Z,144.00
2018-07-27T03:38:40.972Z,156.00
2018-07-27T03:39:40.964Z,168.00
2018-07-27T03:40:40.953Z,184.00
2018-07-27T03:41:40.940Z,196.00
2018-07-27T03:42:40.930Z,216.00
2018-07-27T03:43:40.952Z,232.00
2018-07-27T03:44:40.915Z,248.00
2018-07-27T03:45:40.900Z,268.00
2018-07-27T03:46:40.886Z,288.00
2018-07-27T03:47:40.879Z,308.00
2018-07-27T03:48:41.013Z,332.00
2018-07-27T03:49:40.854Z,356.00
2018-07-27T03:50:40.841Z,380.00
2018-07-27T03:51:40.831Z,408.00
2018-07-27T03:52:40.819Z,436.00
2018-07-27T03:53:40.807Z,464.00
2018-07-27T03:54:40.798Z,500.00
2018-07-27T03:55:40.785Z,532.00
2018-07-27T03:56:40.782Z,560.00
2018-07-27T03:57:40.763Z,600.00
2018-07-27T03:58:40.753Z,636.00
2018-07-27T03:59:40.742Z,676.00
2018-07-27T04:00:40.731Z,708.00
2018-07-27T04:01:40.722Z,748.00
2018-07-27T04:02:40.707Z,788.00
2018-07-27T04:03:40.698Z,828.00
2018-07-27T04:04:40.735Z,872.00
2018-07-27T04:05:40.675Z,916.00
2018-07-27T04:06:40.662Z,956.00
2018-07-27T04:07:40.659Z,1000.00
2018-07-27T04:08:40.702Z,1044.00
2018-07-27T04:09:40.632Z,1088.00
2018-07-27T04:10:40.617Z,1132.00
2018-07-27T04:11:40.607Z,1184.00
2018-07-27T04:12:40.596Z,1232.00
2018-07-27T04:13:40.585Z,1280.00
2018-07-27T04:14:40.573Z,1328.00
2018-07-27T04:15:40.561Z,1372.00
2018-07-27T04:16:40.550Z,1416.00
2018-07-27T04:17:40.538Z,1456.00
2018-07-27T04:18:40.529Z,1504.00
2018-07-27T04:19:40.517Z,1552.00
2018-07-27T04:20:40.507Z,1604.00
2018-07-27T04:21:40.493Z,1656.00
2018-07-27T04:22:40.484Z,1712.00
2018-07-27T04:23:40.473Z,1768.00
2018-07-27T04:24:40.464Z,1832.00
2018-07-27T04:25:40.549Z,1892.00
2018-07-27T04:26:40.440Z,1952.00
2018-07-27T04:27:40.431Z,2008.00
2018-07-27T04:28:40.425Z,2068.00
2018-07-27T04:29:40.406Z,2120.00
2018-07-27T04:30:40.395Z,2184.00
2018-07-27T04:31:40.385Z,2244.00
2018-07-27T04:32:40.372Z,2308.00
2018-07-27T04:33:40.377Z,2376.00
2018-07-27T04:34:40.350Z,2444.00
2018-07-27T04:35:40.350Z,2516.00
2018-07-27T04:36:40.329Z,2588.00
2018-07-27T04:37:40.317Z,2652.00
2018-07-27T04:38:40.307Z,2696.00
2018-07-27T04:39:40.298Z,2732.00
2018-07-27T04:40:40.285Z,2768.00
2018-07-27T04:41:40.333Z,2812.00
2018-07-27T04:42:40.264Z,2856.00
2018-07-27T04:43:40.250Z,2932.00
2018-07-27T04:44:40.240Z,3012.00
2018-07-27T04:45:40.228Z,3032.00
2018-07-27T04:46:40.218Z,3020.00
2018-07-27T04:47:40.207Z,2988.00
2018-07-27T04:48:40.196Z,2928.00
2018-07-27T04:49:40.184Z,2864.00
2018-07-27T04:50:40.179Z,2860.00
2018-07-27T04:51:40.171Z,2932.00
2018-07-27T04:52:40.159Z,3040.00
2018-07-27T04:53:40.141Z,3184.00
2018-07-27T04:54:40.131Z,3308.00
2018-07-27T04:55:40.120Z,3436.00
2018-07-27T04:56:40.226Z,3588.00
2018-07-27T04:57:40.199Z,3732.00
2018-07-27T04:58:40.088Z,3880.00
2018-07-27T04:59:40.077Z,3984.00
2018-07-27T05:00:40.067Z,4072.00
2018-07-27T05:01:40.054Z,4176.00
2018-07-27T05:02:40.046Z,4328.00
2018-07-27T05:03:40.042Z,4444.00
2018-07-27T05:04:40.064Z,4560.00
2018-07-27T05:05:40.014Z,4680.00
2018-07-27T05:06:40.007Z,4860.00
2018-07-27T05:07:39.992Z,5132.00
2018-07-27T05:08:39.981Z,5380.00
2018-07-27T05:09:39.970Z,5552.00
2018-07-27T05:10:39.961Z,5608.00
2018-07-27T05:11:39.949Z,5620.00
2018-07-27T05:12:39.940Z,5612.00
2018-07-27T05:13:39.931Z,5680.00
2018-07-27T05:14:39.917Z,5780.00
2018-07-27T05:15:39.908Z,5956.00
2018-07-27T05:16:39.899Z,6164.00
2018-07-27T05:17:39.887Z,6356.00
2018-07-27T05:18:39.877Z,6568.00
2018-07-27T05:19:39.868Z,6692.00
2018-07-27T05:20:39.856Z,6824.00
2018-07-27T05:21:39.846Z,6956.00
2018-07-27T05:22:39.835Z,7088.00
2018-07-27T05:23:39.827Z,7236.00
2018-07-27T05:24:39.884Z,7400.00
2018-07-27T05:25:39.805Z,7572.00
2018-07-27T05:26:39.795Z,7824.00
2018-07-27T05:27:39.787Z,8060.00
2018-07-27T05:28:39.787Z,8280.00
2018-07-27T05:29:39.767Z,8452.00
2018-07-27T05:30:39.758Z,8476.00
2018-07-27T05:31:39.748Z,8348.00
2018-07-27T05:32:39.737Z,8068.00
2018-07-27T05:33:39.731Z,7768.00
2018-07-27T05:34:39.722Z,7552.00
2018-07-27T05:35:39.709Z,7480.00
2018-07-27T05:36:39.699Z,7600.00
2018-07-27T05:37:39.783Z,8076.00
2018-07-27T05:38:39.689Z,8740.00
2018-07-27T05:39:39.679Z,15456.00
2018-07-27T05:40:39.660Z,29408.00
2018-07-27T05:41:39.651Z,34720.00
2018-07-27T05:42:39.647Z,34688.00
2018-07-27T05:43:39.632Z,34752.00
2018-07-27T05:44:39.622Z,34944.00
2018-07-27T05:45:39.611Z,37184.00
2018-07-27T05:46:39.606Z,36928.00
2018-07-27T05:47:39.593Z,33984.00
2018-07-27T05:48:39.635Z,32896.00
2018-07-27T05:49:39.578Z,36032.00
2018-07-27T05:50:39.568Z,37472.00
2018-07-27T05:51:39.571Z,36928.00
2018-07-27T05:52:39.608Z,33920.00
2018-07-27T05:53:39.547Z,38464.00
2018-07-27T05:54:39.551Z,38496.00
2018-07-27T05:55:39.541Z,38976.00
2018-07-27T05:56:39.571Z,41376.00
2018-07-27T05:57:39.529Z,41728.00
2018-07-27T05:58:39.513Z,42592.00
2018-07-27T05:59:39.508Z,42816.00
2018-07-27T06:00:39.500Z,41664.00
2018-07-27T06:01:39.496Z,41696.00
2018-07-27T06:02:39.546Z,41888.00
2018-07-27T06:03:39.485Z,43296.00
2018-07-27T06:04:39.484Z,45088.00
2018-07-27T06:05:39.475Z,45056.00
2018-07-27T06:06:39.480Z,45152.00
2018-07-27T06:07:39.474Z,45216.00
2018-07-27T06:08:39.490Z,45312.00
2018-07-27T06:09:39.456Z,46400.00
2018-07-27T06:10:39.454Z,47488.00
2018-07-27T06:11:39.449Z,47168.00
2018-07-27T06:12:39.456Z,47008.00
2018-07-27T06:13:39.449Z,49536.00
2018-07-27T06:14:39.494Z,49984.00
2018-07-27T06:15:39.441Z,48608.00
2018-07-27T06:16:39.434Z,51360.00
2018-07-27T06:17:39.433Z,52704.00
2018-07-27T06:18:39.628Z,51936.00
2018-07-27T06:19:39.424Z,52768.00
2018-07-27T06:20:39.428Z,56128.00
2018-07-27T06:21:39.423Z,56992.00
2018-07-27T06:22:39.419Z,56096.00
2018-07-27T06:23:39.444Z,57184.00
2018-07-27T06:24:39.412Z,57600.00
2018-07-27T06:25:39.513Z,58592.00
2018-07-27T06:26:39.408Z,59968.00
2018-07-27T06:27:39.416Z,56192.00
2018-07-27T06:28:39.406Z,55840.00
2018-07-27T06:29:39.403Z,56608.00
2018-07-27T06:30:39.402Z,57120.00
2018-07-27T06:31:39.411Z,59872.00
2018-07-27T06:32:39.399Z,60128.00
2018-07-27T06:33:39.400Z,59360.00
2018-07-27T06:34:39.397Z,58368.00
2018-07-27T06:35:39.399Z,59232.00
2018-07-27T06:36:39.411Z,60928.00
2018-07-27T06:37:39.397Z,59968.00
2018-07-27T06:38:39.398Z,57120.00
2018-07-27T06:39:39.397Z,55200.00
2018-07-27T06:40:39.448Z,58432.00
2018-07-27T06:41:39.398Z,62528.00
2018-07-27T06:42:39.402Z,63616.00
2018-07-27T06:43:39.397Z,63040.00
2018-07-27T06:44:39.400Z,64512.00
2018-07-27T06:45:39.396Z,63264.00
2018-07-27T06:46:42.222Z,63456.00
2018-07-27T06:47:39.405Z,62560.00
2018-07-27T06:48:39.398Z,62048.00
2018-07-27T06:49:39.409Z,63264.00
2018-07-27T06:50:39.400Z,65920.00
2018-07-27T06:51:39.410Z,66112.00
2018-07-27T06:52:39.405Z,63328.00
2018-07-27T06:53:39.401Z,61824.00
2018-07-27T06:54:39.408Z,63104.00
2018-07-27T06:55:39.407Z,67392.00
2018-07-27T06:56:39.410Z,68480.00
2018-07-27T06:57:39.406Z,70816.00
2018-07-27T06:58:39.512Z,64832.00
2018-07-27T06:59:39.420Z,80096.00
2018-07-27T07:00:39.411Z,80800.00
2018-07-27T07:01:39.416Z,71328.00
2018-07-27T07:02:39.411Z,63744.00
2018-07-27T07:03:39.422Z,51200.00
2018-07-27T07:04:39.414Z,56096.00
2018-07-27T07:05:39.423Z,60416.00
2018-07-27T07:06:39.416Z,61088.00
2018-07-27T07:07:39.424Z,58240.00
2018-07-27T07:08:39.417Z,59424.00
2018-07-27T07:09:39.417Z,18048.00
2018-07-27T07:10:39.426Z,61920.00
2018-07-27T07:11:39.425Z,82848.00
2018-07-27T07:12:39.431Z,13076.00
2018-07-27T07:13:39.424Z,24992.00
2018-07-27T07:14:39.427Z,13600.00
2018-07-27T07:15:39.424Z,14588.00
2018-07-27T07:16:39.433Z,22688.00
2018-07-27T07:17:39.427Z,36672.00
2018-07-27T07:18:39.426Z,43008.00
2018-07-27T07:19:39.433Z,28800.00
2018-07-27T07:20:39.855Z,13140.00
2018-07-27T07:21:39.438Z,15688.00
2018-07-27T07:22:39.430Z,16972.00
2018-07-27T07:23:39.430Z,21632.00
2018-07-27T07:24:39.479Z,16312.00
2018-07-27T07:25:39.559Z,16228.00
2018-07-27T07:26:39.427Z,20224.00
2018-07-27T07:27:39.424Z,19296.00
2018-07-27T07:28:39.430Z,14860.00
2018-07-27T07:29:39.423Z,10712.00
2018-07-27T07:30:40.355Z,10556.00
2018-07-27T07:31:39.419Z,10380.00
2018-07-27T07:32:39.426Z,16592.00
2018-07-27T07:33:39.416Z,15420.00
2018-07-27T07:34:39.416Z,29184.00
2018-07-27T07:35:39.414Z,11668.00
2018-07-27T07:36:39.411Z,41056.00
2018-07-27T07:37:39.407Z,20416.00
2018-07-27T07:38:39.419Z,14056.00
2018-07-27T07:39:39.404Z,12632.00
2018-07-27T07:40:39.404Z,8332.00
2018-07-27T07:41:39.399Z,8732.00
2018-07-27T07:42:39.397Z,20768.00
2018-07-27T07:43:39.396Z,18432.00
2018-07-27T07:44:39.392Z,10408.00
2018-07-27T07:45:39.389Z,8900.00
2018-07-27T07:46:39.393Z,8088.00
2018-07-27T07:47:39.385Z,9780.00
2018-07-27T07:48:39.382Z,15420.00
2018-07-27T07:49:39.381Z,12568.00
2018-07-27T07:50:39.379Z,8656.00
2018-07-27T07:51:39.373Z,8800.00
2018-07-27T07:52:39.387Z,9036.00
2018-07-27T07:53:39.368Z,9160.00
2018-07-27T07:54:39.363Z,10088.00
2018-07-27T07:55:39.366Z,9752.00
2018-07-27T07:56:39.357Z,11664.00
2018-07-27T07:57:39.378Z,23616.00
2018-07-27T07:58:39.383Z,23584.00
2018-07-27T07:59:39.347Z,8188.00
2018-07-27T08:00:39.343Z,8900.00
2018-07-27T08:01:39.341Z,8716.00
2018-07-27T08:02:39.339Z,8656.00
2018-07-27T08:03:39.345Z,9204.00
2018-07-27T08:04:39.328Z,12272.00
2018-07-27T08:05:39.355Z,10376.00
2018-07-27T08:06:39.323Z,16176.00
2018-07-27T08:07:39.315Z,16476.00
2018-07-27T08:08:39.315Z,9388.00
2018-07-27T08:09:39.309Z,9472.00
2018-07-27T08:10:39.307Z,9948.00
2018-07-27T08:11:39.303Z,8440.00
2018-07-27T08:12:39.315Z,17824.00
2018-07-27T08:13:39.299Z,9604.00
2018-07-27T08:14:39.663Z,8580.00
2018-07-27T08:15:39.287Z,8068.00
2018-07-27T08:16:39.281Z,7760.00
2018-07-27T08:17:39.287Z,7720.00
2018-07-27T08:18:39.274Z,7652.00
2018-07-27T08:19:39.270Z,7432.00
2018-07-27T08:20:39.266Z,7404.00
2018-07-27T08:21:39.262Z,7412.00
2018-07-27T08:22:39.262Z,7412.00
2018-07-27T08:23:39.252Z,7452.00
2018-07-27T08:24:39.247Z,7384.00
2018-07-27T08:25:39.242Z,5892.00
2018-07-27T08:26:39.247Z,7644.00
2018-07-27T08:27:39.236Z,7468.00
2018-07-27T08:28:39.238Z,7448.00
2018-07-27T08:29:39.226Z,7600.00
2018-07-27T08:30:39.233Z,7632.00
2018-07-27T08:31:39.214Z,7616.00
2018-07-27T08:32:39.210Z,7664.00
2018-07-27T08:33:39.219Z,7708.00
2018-07-27T08:34:39.202Z,7772.00
2018-07-27T08:35:39.200Z,7944.00
2018-07-27T08:36:39.191Z,14132.00
2018-07-27T08:37:39.188Z,8440.00
2018-07-27T08:38:39.181Z,8304.00
2018-07-27T08:39:39.259Z,8600.00
2018-07-27T08:40:39.171Z,8536.00
2018-07-27T08:41:39.174Z,9752.00
2018-07-27T08:42:39.161Z,9080.00
2018-07-27T08:43:39.163Z,9708.00
2018-07-27T08:44:39.153Z,9108.00
2018-07-27T08:45:39.145Z,10904.00
2018-07-27T08:46:39.140Z,13020.00
2018-07-27T08:47:39.136Z,20864.00
2018-07-27T08:48:39.132Z,12336.00
2018-07-27T08:49:39.126Z,67424.00
2018-07-27T08:50:39.120Z,63808.00
2018-07-27T08:51:39.127Z,71552.00
2018-07-27T08:52:39.111Z,52544.00
2018-07-27T08:53:39.104Z,9832.00
2018-07-27T08:54:39.123Z,9156.00
2018-07-27T08:55:39.096Z,9188.00
2018-07-27T08:56:39.090Z,9168.00
2018-07-27T08:57:39.089Z,10140.00
2018-07-27T08:58:39.088Z,12268.00
2018-07-27T08:59:39.080Z,13476.00
2018-07-27T09:00:39.074Z,29280.00
2018-07-27T09:01:39.067Z,15480.00
2018-07-27T09:02:39.078Z,17412.00
2018-07-27T09:03:39.057Z,8776.00
2018-07-27T09:04:39.054Z,9576.00
2018-07-27T09:05:39.054Z,9028.00
2018-07-27T09:06:39.052Z,20040.00
2018-07-27T09:07:39.040Z,9752.00
2018-07-27T09:08:39.032Z,24416.00
2018-07-27T09:09:39.030Z,9592.00
2018-07-27T09:10:39.027Z,9380.00
2018-07-27T09:11:39.019Z,5120.00
2018-07-27T09:12:39.024Z,8820.00
2018-07-27T09:13:39.015Z,9148.00
2018-07-27T09:14:39.004Z,8972.00
2018-07-27T09:15:38.999Z,9468.00
2018-07-27T09:16:39.006Z,9500.00
2018-07-27T09:17:38.991Z,9560.00
2018-07-27T09:18:38.987Z,9704.00
2018-07-27T09:19:38.980Z,9696.00
2018-07-27T09:20:38.978Z,10216.00
2018-07-27T09:21:38.979Z,1680.00
2018-07-27T09:22:38.966Z,11120.00
2018-07-27T09:23:38.968Z,9540.00
2018-07-27T09:24:39.142Z,12332.00
2018-07-27T09:25:38.969Z,13512.00
2018-07-27T09:26:38.964Z,58272.00
2018-07-27T09:27:38.943Z,17344.00
2018-07-27T09:28:38.949Z,13492.00
2018-07-27T09:29:38.933Z,35328.00
2018-07-27T09:30:38.929Z,61696.00
2018-07-27T09:31:38.927Z,97344.00
2018-07-27T09:32:38.929Z,64096.00
2018-07-27T09:33:38.926Z,98048.00
2018-07-27T09:34:38.915Z,13580.00
2018-07-27T09:35:38.917Z,12120.00
2018-07-27T09:36:38.905Z,60512.00
2018-07-27T09:37:38.901Z,44864.00
2018-07-27T09:38:38.899Z,21088.00
2018-07-27T09:39:38.919Z,11860.00
2018-07-27T09:40:38.950Z,66208.00
2018-07-27T09:41:39.087Z,23200.00
2018-07-27T09:42:38.886Z,15436.00
2018-07-27T09:43:38.882Z,18024.00
2018-07-27T09:44:38.878Z,11928.00
2018-07-27T09:45:38.876Z,30304.00
2018-07-27T09:46:38.950Z,13072.00
2018-07-27T09:47:38.870Z,12676.00
2018-07-27T09:48:38.868Z,45824.00
2018-07-27T09:49:38.964Z,70496.00
2018-07-27T09:50:38.860Z,10068.00
2018-07-27T09:51:38.913Z,11112.00
2018-07-27T09:52:38.855Z,60480.00
2018-07-27T09:53:38.852Z,71424.00
2018-07-27T09:54:40.065Z,47776.00
2018-07-27T09:55:38.848Z,16216.00
2018-07-27T09:56:38.848Z,15792.00
2018-07-27T09:57:38.845Z,22784.00
2018-07-27T09:58:38.847Z,104224.00
2018-07-27T09:59:38.844Z,19168.00
2018-07-27T10:00:38.847Z,16768.00
2018-07-27T10:01:38.847Z,28320.00
2018-07-27T10:02:38.836Z,16292.00
2018-07-27T10:03:38.836Z,20480.00
2018-07-27T10:04:38.846Z,16980.00
2018-07-27T10:05:38.834Z,24640.00
2018-07-27T10:06:38.858Z,18240.00
2018-07-27T10:07:38.840Z,97472.00
2018-07-27T10:08:38.830Z,56192.00
2018-07-27T10:09:38.830Z,22080.00
2018-07-27T10:10:38.830Z,33952.00
2018-07-27T10:11:38.831Z,37248.00
2018-07-27T10:12:38.838Z,33696.00
2018-07-27T10:13:38.828Z,83744.00
2018-07-27T10:14:38.830Z,45664.00
2018-07-27T10:15:38.881Z,109536.00
2018-07-27T10:16:38.836Z,111840.00
2018-07-27T10:17:38.831Z,55488.00
2018-07-27T10:18:38.835Z,110304.00
2018-07-27T10:19:38.838Z,110368.00
2018-07-27T10:20:38.847Z,109664.00
2018-07-27T10:21:38.841Z,107200.00
2018-07-27T10:22:38.847Z,105600.00
2018-07-27T10:23:38.857Z,101856.00
2018-07-27T10:24:38.852Z,88032.00
2018-07-27T10:25:38.855Z,75072.00
2018-07-27T10:26:38.862Z,79904.00
2018-07-27T10:27:38.874Z,96384.00
2018-07-27T10:28:38.871Z,73024.00
2018-07-27T10:29:38.879Z,110144.00
2018-07-27T10:30:38.884Z,110016.00
2018-07-27T10:31:38.896Z,111520.00
2018-07-27T10:32:38.894Z,112896.00
2018-07-27T10:33:38.907Z,110848.00
2018-07-27T10:34:38.906Z,112352.00
2018-07-27T10:35:38.913Z,113792.00
2018-07-27T10:36:38.919Z,116928.00
2018-07-27T10:37:38.926Z,117504.00
2018-07-27T10:38:38.998Z,115264.00
2018-07-27T10:39:38.938Z,115072.00
2018-07-27T10:40:38.946Z,113760.00
2018-07-27T10:41:38.953Z,112320.00
2018-07-27T10:42:38.959Z,109216.00
2018-07-27T10:43:38.966Z,106656.00
2018-07-27T10:44:38.973Z,103072.00
2018-07-27T10:45:38.981Z,97536.00
2018-07-27T10:46:38.989Z,91712.00
2018-07-27T10:47:38.997Z,92800.00
2018-07-27T10:48:39.013Z,101568.00
2018-07-27T10:49:39.009Z,110528.00
2018-07-27T10:50:39.020Z,106784.00
2018-07-27T10:51:39.029Z,101280.00
2018-07-27T10:52:39.035Z,100128.00
2018-07-27T10:53:39.051Z,102816.00
2018-07-27T10:54:39.059Z,107584.00
2018-07-27T10:55:39.065Z,111104.00
2018-07-27T10:56:39.075Z,106240.00
2018-07-27T10:57:39.075Z,97152.00
2018-07-27T10:58:39.089Z,94816.00
2018-07-27T10:59:39.093Z,99328.00
2018-07-27T11:00:39.099Z,103680.00
2018-07-27T11:01:39.110Z,104416.00
2018-07-27T11:02:39.123Z,97696.00
2018-07-27T11:03:39.131Z,98816.00
2018-07-27T11:04:39.133Z,103488.00
2018-07-27T11:05:39.149Z,106272.00
2018-07-27T11:06:39.152Z,104544.00
2018-07-27T11:07:39.173Z,105952.00
2018-07-27T11:08:39.177Z,104064.00
2018-07-27T11:09:39.193Z,105728.00
2018-07-27T11:10:39.185Z,106816.00
2018-07-27T11:11:39.196Z,107104.00
2018-07-27T11:12:39.204Z,102112.00
2018-07-27T11:13:39.211Z,97472.00
2018-07-27T11:14:39.228Z,99296.00
2018-07-27T11:15:39.233Z,101984.00
2018-07-27T11:16:39.240Z,102048.00
2018-07-27T11:17:39.321Z,98912.00
2018-07-27T11:18:39.265Z,101856.00
2018-07-27T11:19:39.267Z,105344.00
2018-07-27T11:20:39.281Z,104992.00
2018-07-27T11:21:39.283Z,100352.00
2018-07-27T11:22:39.293Z,98432.00
2018-07-27T11:23:39.302Z,97408.00
2018-07-27T11:24:39.311Z,96608.00
2018-07-27T11:25:39.437Z,97408.00
2018-07-27T11:26:39.338Z,100096.00
2018-07-27T11:27:39.340Z,102848.00
2018-07-27T11:28:39.359Z,99488.00
2018-07-27T11:29:39.371Z,94016.00
2018-07-27T11:30:39.365Z,89344.00
2018-07-27T11:31:39.378Z,90176.00
2018-07-27T11:32:39.390Z,94688.00
2018-07-27T11:33:39.392Z,94688.00
2018-07-27T11:34:39.401Z,94848.00
2018-07-27T11:35:39.411Z,90592.00
2018-07-27T11:36:39.418Z,91616.00
2018-07-27T11:37:39.429Z,92224.00
2018-07-27T11:38:39.446Z,91712.00
2018-07-27T11:39:39.443Z,89792.00
2018-07-27T11:40:39.456Z,88096.00
2018-07-27T11:41:39.459Z,89024.00
2018-07-27T11:42:39.528Z,87584.00
2018-07-27T11:43:39.478Z,89408.00
2018-07-27T11:44:39.488Z,93280.00
2018-07-27T11:45:39.495Z,93216.00
2018-07-27T11:46:39.501Z,92320.00
2018-07-27T11:47:39.515Z,92384.00
2018-07-27T11:48:39.531Z,94848.00
2018-07-27T11:49:39.524Z,94208.00
2018-07-27T11:50:39.539Z,93824.00
2018-07-27T11:51:39.542Z,96544.00
2018-07-27T11:52:39.546Z,92096.00
2018-07-27T11:53:39.555Z,88096.00
2018-07-27T11:54:39.637Z,90784.00
2018-07-27T11:55:39.573Z,79360.00
2018-07-27T11:56:39.576Z,31872.00
2018-07-27T11:57:39.580Z,6796.00
2018-07-27T11:58:39.590Z,5928.00
2018-07-27T11:59:39.601Z,5576.00
2018-07-27T12:00:39.594Z,5452.00
2018-07-27T12:01:39.657Z,5212.00
2018-07-27T12:02:39.610Z,5156.00
2018-07-27T12:03:39.607Z,5056.00
2018-07-27T12:04:39.610Z,5000.00
2018-07-27T12:05:39.613Z,4988.00
2018-07-27T12:06:39.671Z,5000.00
2018-07-27T12:08:39.628Z,5124.00
2018-07-27T12:09:39.624Z,5112.00
2018-07-27T12:10:39.622Z,5168.00
2018-07-27T12:11:39.636Z,5184.00
2018-07-27T12:12:39.630Z,5248.00
2018-07-27T12:13:39.634Z,5252.00
2018-07-27T12:14:39.909Z,5316.00
2018-07-27T12:15:39.629Z,5308.00